sensor_id;sensor_type;location;lat;lon;timestamp;pressure;altitude;pressure_sealevel;temperature;humidity
7614;BME280;3848;42.016;23.098;2024-01-15T00:00:30;96795.13;;;-3.02;100.00
7614;BME280;3848;42.016;23.098;2024-01-15T00:02:57;96785.75;;;-3.10;100.00
7614;BME280;3848;42.016;23.098;2024-01-15T00:05:24;96800.91;;;-3.03;100.00
7614;BME280;3848;42.016;23.098;2024-01-15T00:07:53;96794.22;;;-3.04;100.00
7614;BME280;3848;42.016;23.098;2024-01-15T00:10:20;96796.09;;;-2.99;100.00
7614;BME280;3848;42.016;23.098;2024-01-15T00:12:47;96792.19;;;-2.92;100.00
7614;BME280;3848;42.016;23.098;2024-01-15T00:15:14;96778.94;;;-2.93;100.00
7614;BME280;3848;42.016;23.098;2024-01-15T00:17:41;96785.06;;;-2.85;100.00
7614;BME280;3848;42.016;23.098;2024-01-15T00:20:08;96789.28;;;-2.82;100.00
7614;BME280;3848;42.016;23.098;2024-01-15T00:22:35;96792.69;;;-2.80;100.00
7614;BME280;3848;42.016;23.098;2024-01-15T00:25:04;96796.06;;;-2.78;100.00
7614;BME280;3848;42.016;23.098;2024-01-15T00:27:32;96777.44;;;-2.89;100.00
7614;BME280;3848;42.016;23.098;2024-01-15T00:29:59;96787.75;;;-2.79;100.00
7614;BME280;3848;42.016;23.098;2024-01-15T00:32:26;96774.53;;;-3.00;100.00
7614;BME280;3848;42.016;23.098;2024-01-15T00:34:53;96797.38;;;-2.88;100.00
7614;BME280;3848;42.016;23.098;2024-01-15T00:37:20;96800.66;;;-2.89;100.00
7614;BME280;3848;42.016;23.098;2024-01-15T00:39:47;96795.53;;;-2.92;100.00
7614;BME280;3848;42.016;23.098;2024-01-15T00:42:16;96779.66;;;-2.95;100.00
7614;BME280;3848;42.016;23.098;2024-01-15T00:44:43;96782.41;;;-2.89;100.00
7614;BME280;3848;42.016;23.098;2024-01-15T00:47:10;96780.81;;;-2.87;100.00
7614;BME280;3848;42.016;23.098;2024-01-15T00:49:37;96775.53;;;-2.95;100.00
7614;BME280;3848;42.016;23.098;2024-01-15T00:52:05;96750.72;;;-3.16;100.00
7614;BME280;3848;42.016;23.098;2024-01-15T00:54:32;96776.94;;;-3.01;100.00
7614;BME280;3848;42.016;23.098;2024-01-15T00:56:59;96765.75;;;-3.13;100.00
7614;BME280;3848;42.016;23.098;2024-01-15T00:59:28;96770.84;;;-3.10;100.00
7614;BME280;3848;42.016;23.098;2024-01-15T01:01:55;96757.63;;;-3.09;100.00
7614;BME280;3848;42.016;23.098;2024-01-15T01:04:22;96757.44;;;-3.13;100.00
7614;BME280;3848;42.016;23.098;2024-01-15T01:06:49;96760.72;;;-3.14;100.00
7614;BME280;3848;42.016;23.098;2024-01-15T01:09:16;96757.16;;;-3.21;100.00
7614;BME280;3848;42.016;23.098;2024-01-15T01:11:43;96743.66;;;-3.27;100.00
7614;BME280;3848;42.016;23.098;2024-01-15T01:14:10;96771.75;;;-3.08;100.00
7614;BME280;3848;42.016;23.098;2024-01-15T01:16:39;96774.25;;;-3.08;100.00
7614;BME280;3848;42.016;23.098;2024-01-15T01:19:06;96776.09;;;-3.02;100.00
7614;BME280;3848;42.016;23.098;2024-01-15T01:21:33;96771.97;;;-3.01;100.00
7614;BME280;3848;42.016;23.098;2024-01-15T01:24:00;96761.09;;;-3.05;100.00
7614;BME280;3848;42.016;23.098;2024-01-15T01:26:27;96766.69;;;-3.11;100.00
7614;BME280;3848;42.016;23.098;2024-01-15T01:28:54;96768.13;;;-3.16;100.00
7614;BME280;3848;42.016;23.098;2024-01-15T01:31:21;96764.66;;;-3.19;100.00
7614;BME280;3848;42.016;23.098;2024-01-15T01:33:49;96764.50;;;-3.24;100.00
7614;BME280;3848;42.016;23.098;2024-01-15T01:36:16;96760.03;;;-3.32;100.00
7614;BME280;3848;42.016;23.098;2024-01-15T01:38:43;96744.28;;;-3.54;100.00
7614;BME280;3848;42.016;23.098;2024-01-15T01:41:09;96762.56;;;-3.52;100.00
7614;BME280;3848;42.016;23.098;2024-01-15T01:43:36;96758.56;;;-3.69;100.00
7614;BME280;3848;42.016;23.098;2024-01-15T01:46:04;96760.19;;;-3.70;100.00
7614;BME280;3848;42.016;23.098;2024-01-15T01:48:32;96767.25;;;-3.58;100.00
7614;BME280;3848;42.016;23.098;2024-01-15T01:51:03;96760.16;;;-3.50;100.00
7614;BME280;3848;42.016;23.098;2024-01-15T01:53:32;96749.47;;;-3.48;100.00
7614;BME280;3848;42.016;23.098;2024-01-15T01:56:00;96748.13;;;-3.40;100.00
7614;BME280;3848;42.016;23.098;2024-01-15T01:58:28;96736.44;;;-3.42;100.00
7614;BME280;3848;42.016;23.098;2024-01-15T02:00:56;96742.38;;;-3.39;100.00
7614;BME280;3848;42.016;23.098;2024-01-15T02:03:24;96743.16;;;-3.40;100.00
7614;BME280;3848;42.016;23.098;2024-01-15T02:05:52;96743.16;;;-3.40;100.00
7614;BME280;3848;42.016;23.098;2024-01-15T02:08:21;96732.34;;;-3.42;100.00
7614;BME280;3848;42.016;23.098;2024-01-15T02:10:48;96730.75;;;-3.40;100.00
7614;BME280;3848;42.016;23.098;2024-01-15T02:13:15;96728.38;;;-3.37;100.00
7614;BME280;3848;42.016;23.098;2024-01-15T02:15:42;96725.84;;;-3.38;100.00
7614;BME280;3848;42.016;23.098;2024-01-15T02:18:09;96715.56;;;-3.47;100.00
7614;BME280;3848;42.016;23.098;2024-01-15T02:20:36;96717.03;;;-3.52;100.00
7614;BME280;3848;42.016;23.098;2024-01-15T02:23:11;96710.22;;;-3.56;100.00
7614;BME280;3848;42.016;23.098;2024-01-15T02:25:40;96698.97;;;-3.69;100.00
7614;BME280;3848;42.016;23.098;2024-01-15T02:28:08;96686.88;;;-3.61;100.00
7614;BME280;3848;42.016;23.098;2024-01-15T02:30:37;96687.78;;;-3.59;100.00
7614;BME280;3848;42.016;23.098;2024-01-15T02:33:05;96684.94;;;-3.48;100.00
7614;BME280;3848;42.016;23.098;2024-01-15T02:35:32;96683.25;;;-3.49;100.00
7614;BME280;3848;42.016;23.098;2024-01-15T02:38:02;96686.13;;;-3.59;100.00
7614;BME280;3848;42.016;23.098;2024-01-15T02:40:30;96668.41;;;-3.89;100.00
7614;BME280;3848;42.016;23.098;2024-01-15T02:42:57;96662.16;;;-4.00;100.00
7614;BME280;3848;42.016;23.098;2024-01-15T02:45:24;96674.09;;;-3.91;100.00
7614;BME280;3848;42.016;23.098;2024-01-15T02:47:51;96658.16;;;-3.96;100.00
7614;BME280;3848;42.016;23.098;2024-01-15T02:50:18;96663.22;;;-3.95;100.00
7614;BME280;3848;42.016;23.098;2024-01-15T02:52:45;96651.72;;;-3.93;100.00
7614;BME280;3848;42.016;23.098;2024-01-15T02:55:12;96649.34;;;-3.90;100.00
7614;BME280;3848;42.016;23.098;2024-01-15T02:57:40;96646.94;;;-3.88;100.00
7614;BME280;3848;42.016;23.098;2024-01-15T03:00:08;96650.94;;;-3.92;100.00
7614;BME280;3848;42.016;23.098;2024-01-15T03:02:37;96631.13;;;-4.11;100.00
7614;BME280;3848;42.016;23.098;2024-01-15T03:05:05;96638.19;;;-4.20;100.00
7614;BME280;3848;42.016;23.098;2024-01-15T03:07:33;96655.56;;;-4.20;100.00
7614;BME280;3848;42.016;23.098;2024-01-15T03:10:00;96655.31;;;-4.26;100.00
7614;BME280;3848;42.016;23.098;2024-01-15T03:12:27;96641.34;;;-4.24;100.00
7614;BME280;3848;42.016;23.098;2024-01-15T03:14:55;96630.69;;;-4.22;100.00
7614;BME280;3848;42.016;23.098;2024-01-15T03:17:22;96631.09;;;-4.13;100.00
7614;BME280;3848;42.016;23.098;2024-01-15T03:19:49;96625.44;;;-4.09;100.00
7614;BME280;3848;42.016;23.098;2024-01-15T03:22:17;96616.00;;;-4.17;100.00
7614;BME280;3848;42.016;23.098;2024-01-15T03:24:44;96559.44;;;-4.47;100.00
7614;BME280;3848;42.016;23.098;2024-01-15T03:27:11;96612.31;;;-4.06;100.00
7614;BME280;3848;42.016;23.098;2024-01-15T03:29:39;96606.63;;;-4.04;100.00
7614;BME280;3848;42.016;23.098;2024-01-15T03:32:07;96598.34;;;-4.04;100.00
7614;BME280;3848;42.016;23.098;2024-01-15T03:34:34;96606.00;;;-3.98;100.00
7614;BME280;3848;42.016;23.098;2024-01-15T03:37:01;96611.25;;;-3.92;100.00
7614;BME280;3848;42.016;23.098;2024-01-15T03:39:29;96606.91;;;-3.96;100.00
7614;BME280;3848;42.016;23.098;2024-01-15T03:41:56;96609.53;;;-3.93;100.00
7614;BME280;3848;42.016;23.098;2024-01-15T03:44:23;96618.19;;;-3.83;100.00
7614;BME280;3848;42.016;23.098;2024-01-15T03:46:50;96622.56;;;-3.76;100.00
7614;BME280;3848;42.016;23.098;2024-01-15T03:49:18;96633.59;;;-3.70;100.00
7614;BME280;3848;42.016;23.098;2024-01-15T03:51:45;96641.78;;;-3.72;100.00
7614;BME280;3848;42.016;23.098;2024-01-15T03:54:12;96614.63;;;-3.90;100.00
7614;BME280;3848;42.016;23.098;2024-01-15T03:56:39;96629.31;;;-3.74;100.00
7614;BME280;3848;42.016;23.098;2024-01-15T03:59:06;96616.13;;;-3.73;100.00
7614;BME280;3848;42.016;23.098;2024-01-15T04:01:33;96616.25;;;-3.70;100.00
7614;BME280;3848;42.016;23.098;2024-01-15T04:04:00;96627.53;;;-3.76;100.00
7614;BME280;3848;42.016;23.098;2024-01-15T04:06:29;96633.50;;;-3.93;100.00
7614;BME280;3848;42.016;23.098;2024-01-15T04:08:56;96634.28;;;-4.15;100.00
7614;BME280;3848;42.016;23.098;2024-01-15T04:11:22;96645.28;;;-4.30;100.00
7614;BME280;3848;42.016;23.098;2024-01-15T04:13:50;96616.06;;;-4.37;100.00
7614;BME280;3848;42.016;23.098;2024-01-15T04:16:16;96632.59;;;-4.16;100.00
7614;BME280;3848;42.016;23.098;2024-01-15T04:18:44;96632.28;;;-4.24;100.00
7614;BME280;3848;42.016;23.098;2024-01-15T04:21:11;96647.34;;;-4.39;100.00
7614;BME280;3848;42.016;23.098;2024-01-15T04:23:40;96635.50;;;-4.46;100.00
7614;BME280;3848;42.016;23.098;2024-01-15T04:26:07;96651.28;;;-4.44;100.00
7614;BME280;3848;42.016;23.098;2024-01-15T04:28:34;96637.38;;;-4.40;100.00
7614;BME280;3848;42.016;23.098;2024-01-15T04:31:01;96630.94;;;-4.37;100.00
7614;BME280;3848;42.016;23.098;2024-01-15T04:33:28;96636.88;;;-4.33;100.00
7614;BME280;3848;42.016;23.098;2024-01-15T04:35:55;96639.53;;;-4.28;100.00
7614;BME280;3848;42.016;23.098;2024-01-15T04:38:22;96644.72;;;-4.22;100.00
7614;BME280;3848;42.016;23.098;2024-01-15T04:40:50;96644.84;;;-4.19;100.00
7614;BME280;3848;42.016;23.098;2024-01-15T04:43:17;96617.03;;;-4.33;100.00
7614;BME280;3848;42.016;23.098;2024-01-15T04:45:44;96620.78;;;-4.22;100.00
7614;BME280;3848;42.016;23.098;2024-01-15T04:48:11;96627.69;;;-4.15;100.00
7614;BME280;3848;42.016;23.098;2024-01-15T04:50:38;96620.31;;;-4.13;100.00
7614;BME280;3848;42.016;23.098;2024-01-15T04:53:05;96609.09;;;-4.24;100.00
7614;BME280;3848;42.016;23.098;2024-01-15T04:55:31;96613.16;;;-4.26;100.00
7614;BME280;3848;42.016;23.098;2024-01-15T04:57:59;96610.72;;;-4.25;100.00
7614;BME280;3848;42.016;23.098;2024-01-15T05:00:26;96598.16;;;-4.30;100.00
7614;BME280;3848;42.016;23.098;2024-01-15T05:02:53;96614.06;;;-4.24;100.00
7614;BME280;3848;42.016;23.098;2024-01-15T05:05:21;96603.78;;;-4.34;100.00
7614;BME280;3848;42.016;23.098;2024-01-15T05:07:48;96602.72;;;-4.39;100.00
7614;BME280;3848;42.016;23.098;2024-01-15T05:10:15;96614.03;;;-4.45;100.00
7614;BME280;3848;42.016;23.098;2024-01-15T05:12:42;96608.19;;;-4.47;100.00
7614;BME280;3848;42.016;23.098;2024-01-15T05:15:10;96610.47;;;-4.52;100.00
7614;BME280;3848;42.016;23.098;2024-01-15T05:17:37;96612.88;;;-4.53;100.00
7614;BME280;3848;42.016;23.098;2024-01-15T05:20:05;96605.00;;;-4.64;100.00
7614;BME280;3848;42.016;23.098;2024-01-15T05:22:32;96567.84;;;-4.83;100.00
7614;BME280;3848;42.016;23.098;2024-01-15T05:24:59;96577.78;;;-4.63;100.00
7614;BME280;3848;42.016;23.098;2024-01-15T05:27:26;96571.69;;;-4.71;100.00
7614;BME280;3848;42.016;23.098;2024-01-15T05:29:53;96593.38;;;-4.65;100.00
7614;BME280;3848;42.016;23.098;2024-01-15T05:32:22;96571.88;;;-4.66;100.00
7614;BME280;3848;42.016;23.098;2024-01-15T05:34:48;96586.06;;;-4.62;100.00
7614;BME280;3848;42.016;23.098;2024-01-15T05:37:15;96579.97;;;-4.70;100.00
7614;BME280;3848;42.016;23.098;2024-01-15T05:39:42;96579.84;;;-4.73;100.00
7614;BME280;3848;42.016;23.098;2024-01-15T05:42:09;96579.91;;;-4.72;100.00
7614;BME280;3848;42.016;23.098;2024-01-15T05:44:36;96571.22;;;-4.81;100.00
7614;BME280;3848;42.016;23.098;2024-01-15T05:47:04;96565.44;;;-4.82;100.00
7614;BME280;3848;42.016;23.098;2024-01-15T05:49:32;96552.47;;;-4.76;100.00
7614;BME280;3848;42.016;23.098;2024-01-15T05:51:59;96530.69;;;-4.83;100.00
7614;BME280;3848;42.016;23.098;2024-01-15T05:54:26;96542.00;;;-4.69;100.00
7614;BME280;3848;42.016;23.098;2024-01-15T05:56:53;96539.53;;;-4.69;100.00
7614;BME280;3848;42.016;23.098;2024-01-15T05:59:20;96535.97;;;-4.76;100.00
7614;BME280;3848;42.016;23.098;2024-01-15T06:01:47;96544.69;;;-4.65;100.00
7614;BME280;3848;42.016;23.098;2024-01-15T06:04:14;96539.06;;;-4.61;100.00
7614;BME280;3848;42.016;23.098;2024-01-15T06:06:42;96532.84;;;-4.51;100.00
7614;BME280;3848;42.016;23.098;2024-01-15T06:09:09;96479.63;;;-4.80;100.00
7614;BME280;3848;42.016;23.098;2024-01-15T06:11:36;96536.72;;;-4.37;100.00
7614;BME280;3848;42.016;23.098;2024-01-15T06:14:03;96549.75;;;-4.41;100.00
7614;BME280;3848;42.016;23.098;2024-01-15T06:16:30;96547.06;;;-4.47;100.00
7614;BME280;3848;42.016;23.098;2024-01-15T06:18:57;96494.50;;;-4.59;100.00
7614;BME280;3848;42.016;23.098;2024-01-15T06:21:24;96533.94;;;-4.23;100.00
7614;BME280;3848;42.016;23.098;2024-01-15T06:23:52;96526.97;;;-4.11;100.00
7614;BME280;3848;42.016;23.098;2024-01-15T06:26:21;96533.28;;;-3.97;100.00
7614;BME280;3848;42.016;23.098;2024-01-15T06:28:48;96507.91;;;-4.12;100.00
7614;BME280;3848;42.016;23.098;2024-01-15T06:31:16;96514.06;;;-4.03;100.00
7614;BME280;3848;42.016;23.098;2024-01-15T06:33:43;96462.34;;;-4.37;100.00
7614;BME280;3848;42.016;23.098;2024-01-15T06:36:12;96535.72;;;-3.99;100.00
7614;BME280;3848;42.016;23.098;2024-01-15T06:38:39;96533.28;;;-3.97;100.00
7614;BME280;3848;42.016;23.098;2024-01-15T06:41:08;96476.00;;;-4.25;100.00
7614;BME280;3848;42.016;23.098;2024-01-15T06:43:35;96552.19;;;-3.78;100.00
7614;BME280;3848;42.016;23.098;2024-01-15T06:46:02;96561.56;;;-3.93;100.00
7614;BME280;3848;42.016;23.098;2024-01-15T06:48:29;96558.25;;;-4.15;100.00
7614;BME280;3848;42.016;23.098;2024-01-15T06:50:56;96554.56;;;-4.24;100.00
7614;BME280;3848;42.016;23.098;2024-01-15T06:53:23;96559.94;;;-4.35;100.00
7614;BME280;3848;42.016;23.098;2024-01-15T06:55:50;96546.03;;;-4.52;100.00
7614;BME280;3848;42.016;23.098;2024-01-15T06:58:19;96543.84;;;-4.65;100.00
7614;BME280;3848;42.016;23.098;2024-01-15T07:00:46;96544.34;;;-4.53;100.00
7614;BME280;3848;42.016;23.098;2024-01-15T07:03:13;96537.25;;;-4.44;100.00
7614;BME280;3848;42.016;23.098;2024-01-15T07:05:40;96538.53;;;-4.33;100.00
7614;BME280;3848;42.016;23.098;2024-01-15T07:08:07;96533.03;;;-4.25;100.00
7614;BME280;3848;42.016;23.098;2024-01-15T07:10:34;96535.78;;;-4.18;100.00
7614;BME280;3848;42.016;23.098;2024-01-15T07:13:01;96541.81;;;-4.13;100.00
7614;BME280;3848;42.016;23.098;2024-01-15T07:15:29;96539.06;;;-4.19;100.00
7614;BME280;3848;42.016;23.098;2024-01-15T07:18:00;96544.72;;;-4.01;100.00
7614;BME280;3848;42.016;23.098;2024-01-15T07:20:27;96530.28;;;-3.90;100.00
7614;BME280;3848;42.016;23.098;2024-01-15T07:22:54;96528.41;;;-3.73;100.00
7614;BME280;3848;42.016;23.098;2024-01-15T07:25:22;96534.56;;;-3.63;100.00
7614;BME280;3848;42.016;23.098;2024-01-15T07:27:51;96536.69;;;-3.50;100.00
7614;BME280;3848;42.016;23.098;2024-01-15T07:30:19;96524.56;;;-3.43;100.00
7614;BME280;3848;42.016;23.098;2024-01-15T07:32:48;96521.06;;;-3.48;100.00
7614;BME280;3848;42.016;23.098;2024-01-15T07:35:16;96518.78;;;-3.42;100.00
7614;BME280;3848;42.016;23.098;2024-01-15T07:37:43;96524.16;;;-3.31;100.00
7614;BME280;3848;42.016;23.098;2024-01-15T07:40:11;96518.00;;;-3.17;100.00
7614;BME280;3848;42.016;23.098;2024-01-15T07:42:38;96498.47;;;-3.31;100.00
7614;BME280;3848;42.016;23.098;2024-01-15T07:45:05;96528.59;;;-2.98;100.00
7614;BME280;3848;42.016;23.098;2024-01-15T07:47:32;96520.75;;;-2.85;100.00
7614;BME280;3848;42.016;23.098;2024-01-15T07:50:01;96445.50;;;-3.07;100.00
7614;BME280;3848;42.016;23.098;2024-01-15T07:52:28;96534.91;;;-2.59;100.00
7614;BME280;3848;42.016;23.098;2024-01-15T07:54:56;96518.78;;;-2.70;100.00
7614;BME280;3848;42.016;23.098;2024-01-15T07:57:25;96535.59;;;-2.63;100.00
7614;BME280;3848;42.016;23.098;2024-01-15T07:59:52;96517.84;;;-2.48;100.00
7614;BME280;3848;42.016;23.098;2024-01-15T08:02:19;96516.97;;;-2.23;100.00
7614;BME280;3848;42.016;23.098;2024-01-15T08:04:46;96521.16;;;-2.22;100.00
7614;BME280;3848;42.016;23.098;2024-01-15T08:07:14;96532.47;;;-2.05;100.00
7614;BME280;3848;42.016;23.098;2024-01-15T08:09:41;96537.19;;;-2.12;100.00
7614;BME280;3848;42.016;23.098;2024-01-15T08:12:07;96530.16;;;-1.99;100.00
7614;BME280;3848;42.016;23.098;2024-01-15T08:14:35;96543.75;;;-1.88;100.00
7614;BME280;3848;42.016;23.098;2024-01-15T08:17:02;96541.81;;;-1.98;100.00
7614;BME280;3848;42.016;23.098;2024-01-15T08:19:29;96545.66;;;-2.07;100.00
7614;BME280;3848;42.016;23.098;2024-01-15T08:21:57;96549.13;;;-2.02;100.00
7614;BME280;3848;42.016;23.098;2024-01-15T08:24:25;96545.09;;;-2.26;100.00
7614;BME280;3848;42.016;23.098;2024-01-15T08:26:52;96535.75;;;-2.06;100.00
7614;BME280;3848;42.016;23.098;2024-01-15T08:29:19;96538.78;;;-1.88;100.00
7614;BME280;3848;42.016;23.098;2024-01-15T08:31:46;96529.00;;;-1.83;100.00
7614;BME280;3848;42.016;23.098;2024-01-15T08:34:13;96526.81;;;-1.72;100.00
7614;BME280;3848;42.016;23.098;2024-01-15T08:36:40;96542.84;;;-1.64;100.00
7614;BME280;3848;42.016;23.098;2024-01-15T08:39:07;96540.19;;;-1.69;100.00
7614;BME280;3848;42.016;23.098;2024-01-15T08:41:36;96531.41;;;-1.86;100.00
7614;BME280;3848;42.016;23.098;2024-01-15T08:44:03;96549.25;;;-1.71;100.00
7614;BME280;3848;42.016;23.098;2024-01-15T08:46:30;96545.84;;;-1.74;100.00
7614;BME280;3848;42.016;23.098;2024-01-15T08:48:57;96542.41;;;-1.78;100.00
7614;BME280;3848;42.016;23.098;2024-01-15T08:51:24;96521.47;;;-1.85;100.00
7614;BME280;3848;42.016;23.098;2024-01-15T08:53:52;96540.19;;;-1.69;100.00
7614;BME280;3848;42.016;23.098;2024-01-15T08:56:19;96525.81;;;-1.77;100.00
7614;BME280;3848;42.016;23.098;2024-01-15T08:58:47;96535.31;;;-1.66;100.00
7614;BME280;3848;42.016;23.098;2024-01-15T09:01:14;96526.13;;;-1.67;100.00
7614;BME280;3848;42.016;23.098;2024-01-15T09:03:41;96530.00;;;-1.76;100.00
7614;BME280;3848;42.016;23.098;2024-01-15T09:06:08;96526.81;;;-1.72;100.00
7614;BME280;3848;42.016;23.098;2024-01-15T09:08:36;96508.91;;;-1.61;100.00
7614;BME280;3848;42.016;23.098;2024-01-15T09:11:03;96512.94;;;-1.64;100.00
7614;BME280;3848;42.016;23.098;2024-01-15T09:13:30;96503.31;;;-1.52;100.00
7614;BME280;3848;42.016;23.098;2024-01-15T09:15:59;96477.53;;;-1.54;100.00
7614;BME280;3848;42.016;23.098;2024-01-15T09:18:26;96483.69;;;-1.41;100.00
7614;BME280;3848;42.016;23.098;2024-01-15T09:20:53;96472.97;;;-1.39;100.00
7614;BME280;3848;42.016;23.098;2024-01-15T09:23:20;96470.63;;;-1.33;100.00
7614;BME280;3848;42.016;23.098;2024-01-15T09:25:47;96461.47;;;-1.34;100.00
7614;BME280;3848;42.016;23.098;2024-01-15T09:28:15;96454.09;;;-1.31;100.00
7614;BME280;3848;42.016;23.098;2024-01-15T09:30:42;96455.88;;;-1.25;100.00
7614;BME280;3848;42.016;23.098;2024-01-15T09:33:12;96453.53;;;-1.20;100.00
7614;BME280;3848;42.016;23.098;2024-01-15T09:35:38;96432.31;;;-1.05;100.00
7614;BME280;3848;42.016;23.098;2024-01-15T09:38:06;96436.72;;;-0.96;100.00
7614;BME280;3848;42.016;23.098;2024-01-15T09:40:33;96429.06;;;-1.04;100.00
7614;BME280;3848;42.016;23.098;2024-01-15T09:43:00;96420.97;;;-0.94;100.00
7614;BME280;3848;42.016;23.098;2024-01-15T09:45:28;96410.53;;;-0.80;100.00
7614;BME280;3848;42.016;23.098;2024-01-15T09:47:56;96408.78;;;-0.83;100.00
7614;BME280;3848;42.016;23.098;2024-01-15T09:50:24;96400.38;;;-0.86;100.00
7614;BME280;3848;42.016;23.098;2024-01-15T09:52:52;96395.63;;;-0.77;100.00
7614;BME280;3848;42.016;23.098;2024-01-15T09:55:19;96393.25;;;-0.71;100.00
7614;BME280;3848;42.016;23.098;2024-01-15T09:57:47;96393.44;;;-0.64;100.00
7614;BME280;3848;42.016;23.098;2024-01-15T10:00:15;96391.28;;;-0.48;100.00
7614;BME280;3848;42.016;23.098;2024-01-15T10:02:44;96384.91;;;-0.37;100.00
7614;BME280;3848;42.016;23.098;2024-01-15T10:05:11;96333.75;;;-0.56;100.00
7614;BME280;3848;42.016;23.098;2024-01-15T10:07:40;96334.72;;;-0.49;100.00
7614;BME280;3848;42.016;23.098;2024-01-15T10:10:07;96383.13;;;-0.02;100.00
7614;BME280;3848;42.016;23.098;2024-01-15T10:12:34;96363.06;;;-0.07;100.00
7614;BME280;3848;42.016;23.098;2024-01-15T10:15:02;96360.41;;;-0.16;100.00
7614;BME280;3848;42.016;23.098;2024-01-15T10:17:29;96363.13;;;-0.04;100.00
7614;BME280;3848;42.016;23.098;2024-01-15T10:19:57;96353.97;;;-0.05;100.00
7614;BME280;3848;42.016;23.098;2024-01-15T10:22:25;96354.09;;;0.02;100.00
7614;BME280;3848;42.016;23.098;2024-01-15T10:24:54;96347.50;;;0.04;100.00
7614;BME280;3848;42.016;23.098;2024-01-15T10:27:21;96347.56;;;0.08;100.00
7614;BME280;3848;42.016;23.098;2024-01-15T10:29:47;96329.91;;;-0.01;100.00
7614;BME280;3848;42.016;23.098;2024-01-15T10:32:14;96344.34;;;0.14;100.00
7614;BME280;3848;42.016;23.098;2024-01-15T10:34:42;96338.59;;;0.18;100.00
7614;BME280;3848;42.016;23.098;2024-01-15T10:37:09;96330.72;;;-0.01;100.00
7614;BME280;3848;42.016;23.098;2024-01-15T10:39:55;96313.31;;;0.01;100.00
7614;BME280;3848;42.016;23.098;2024-01-15T10:42:23;96314.44;;;0.17;100.00
7614;BME280;3848;42.016;23.098;2024-01-15T10:44:50;96295.34;;;0.20;100.00
7614;BME280;3848;42.016;23.098;2024-01-15T10:47:17;96297.31;;;0.37;100.00
7614;BME280;3848;42.016;23.098;2024-01-15T10:49:45;96307.56;;;0.52;100.00
7614;BME280;3848;42.016;23.098;2024-01-15T10:52:13;96290.31;;;0.64;100.00
7614;BME280;3848;42.016;23.098;2024-01-15T10:54:41;96268.81;;;0.75;100.00
7614;BME280;3848;42.016;23.098;2024-01-15T10:57:11;96294.38;;;1.10;100.00
7614;BME280;3848;42.016;23.098;2024-01-15T10:59:39;96281.84;;;1.09;100.00
7614;BME280;3848;42.016;23.098;2024-01-15T11:02:06;96293.78;;;1.27;100.00
7614;BME280;3848;42.016;23.098;2024-01-15T11:04:34;96275.47;;;1.31;100.00
7614;BME280;3848;42.016;23.098;2024-01-15T11:07:02;96289.78;;;1.41;100.00
7614;BME280;3848;42.016;23.098;2024-01-15T11:09:29;96287.19;;;1.33;100.00
7614;BME280;3848;42.016;23.098;2024-01-15T11:12:07;96278.69;;;1.22;100.00
7614;BME280;3848;42.016;23.098;2024-01-15T11:14:39;96272.53;;;1.00;100.00
7614;BME280;3848;42.016;23.098;2024-01-15T11:17:06;96268.41;;;1.04;100.00
7614;BME280;3848;42.016;23.098;2024-01-15T11:19:37;96261.81;;;1.07;100.00
7614;BME280;3848;42.016;23.098;2024-01-15T11:22:07;96245.22;;;1.14;100.00
7614;BME280;3848;42.016;23.098;2024-01-15T11:24:36;96233.72;;;1.25;100.00
7614;BME280;3848;42.016;23.098;2024-01-15T11:27:03;96221.28;;;1.33;100.00
7614;BME280;3848;42.016;23.098;2024-01-15T11:29:32;96238.22;;;1.52;100.00
7614;BME280;3848;42.016;23.098;2024-01-15T11:32:03;96221.66;;;1.63;100.00
7614;BME280;3848;42.016;23.098;2024-01-15T11:34:53;96227.72;;;1.83;100.00
7614;BME280;3848;42.016;23.098;2024-01-15T11:37:20;96221.97;;;1.88;100.00
7614;BME280;3848;42.016;23.098;2024-01-15T11:39:51;96216.16;;;1.93;100.00
7614;BME280;3848;42.016;23.098;2024-01-15T11:42:20;96217.88;;;1.99;100.00
7614;BME280;3848;42.016;23.098;2024-01-15T11:44:47;96182.00;;;2.03;100.00
7614;BME280;3848;42.016;23.098;2024-01-15T11:47:16;96198.06;;;2.23;100.00
7614;BME280;3848;42.016;23.098;2024-01-15T11:50:01;96189.81;;;2.33;100.00
7614;BME280;3848;42.016;23.098;2024-01-15T11:52:36;96181.47;;;2.34;100.00
7614;BME280;3848;42.016;23.098;2024-01-15T11:55:12;96149.63;;;2.24;100.00
7614;BME280;3848;42.016;23.098;2024-01-15T11:57:42;96186.72;;;2.65;100.00
7614;BME280;3848;42.016;23.098;2024-01-15T12:00:13;96176.78;;;2.75;100.00
7614;BME280;3848;42.016;23.098;2024-01-15T12:02:41;96163.44;;;2.86;100.00
7614;BME280;3848;42.016;23.098;2024-01-15T12:05:09;96164.38;;;2.98;100.00
7614;BME280;3848;42.016;23.098;2024-01-15T12:07:38;96152.66;;;2.96;100.00
7614;BME280;3848;42.016;23.098;2024-01-15T12:10:08;96164.41;;;3.11;100.00
7614;BME280;3848;42.016;23.098;2024-01-15T12:12:48;96164.47;;;3.17;100.00
7614;BME280;3848;42.016;23.098;2024-01-15T12:15:18;96143.59;;;3.28;100.00
7614;BME280;3848;42.016;23.098;2024-01-15T12:17:46;96139.47;;;3.38;100.00
7614;BME280;3848;42.016;23.098;2024-01-15T12:20:14;96143.66;;;3.38;100.00
7614;BME280;3848;42.016;23.098;2024-01-15T12:22:42;96135.28;;;3.40;100.00
7614;BME280;3848;42.016;23.098;2024-01-15T12:25:09;96129.44;;;3.36;100.00
7614;BME280;3848;42.016;23.098;2024-01-15T12:27:36;96112.69;;;3.39;100.00
7614;BME280;3848;42.016;23.098;2024-01-15T12:30:05;96116.88;;;3.46;100.00
7614;BME280;3848;42.016;23.098;2024-01-15T12:32:33;96099.31;;;3.41;100.00
7614;BME280;3848;42.016;23.098;2024-01-15T12:35:03;96106.88;;;3.59;100.00
7614;BME280;3848;42.016;23.098;2024-01-15T12:37:30;96105.28;;;4.00;100.00
7614;BME280;3848;42.016;23.098;2024-01-15T12:39:58;96073.38;;;4.56;100.00
7614;BME280;3848;42.016;23.098;2024-01-15T12:42:26;96090.78;;;5.28;100.00
7614;BME280;3848;42.016;23.098;2024-01-15T12:44:56;96082.97;;;5.75;100.00
7614;BME280;3848;42.016;23.098;2024-01-15T12:47:24;96095.41;;;6.07;100.00
7614;BME280;3848;42.016;23.098;2024-01-15T12:49:51;96096.13;;;6.25;98.32
7614;BME280;3848;42.016;23.098;2024-01-15T12:52:21;96091.63;;;6.57;90.69
7614;BME280;3848;42.016;23.098;2024-01-15T12:54:48;96094.72;;;6.84;85.61
7614;BME280;3848;42.016;23.098;2024-01-15T12:57:16;96093.69;;;7.00;82.80
7614;BME280;3848;42.016;23.098;2024-01-15T12:59:43;96094.47;;;7.05;79.75
7614;BME280;3848;42.016;23.098;2024-01-15T13:02:11;96103.69;;;7.11;78.77
7614;BME280;3848;42.016;23.098;2024-01-15T13:04:38;96099.53;;;7.08;77.84